sensor_id;sensor_type;location;lat;lon;timestamp;pressure;altitude;pressure_sealevel;temperature;humidity
14232;BME280;7200;52.194;9.900;2023-02-18T00:01:47;100157.78;;;11.09;97.05
14232;BME280;7200;52.194;9.900;2023-02-18T00:04:13;100223.22;;;11.23;97.73
14232;BME280;7200;52.194;9.900;2023-02-18T00:06:38;100188.28;;;11.17;97.60
14232;BME280;7200;52.194;9.900;2023-02-18T00:09:04;100194.56;;;11.14;98.32
14232;BME280;7200;52.194;9.900;2023-02-18T00:11:32;100200.22;;;11.05;98.37
14232;BME280;7200;52.194;9.900;2023-02-18T00:14:00;100196.97;;;11.19;98.01
14232;BME280;7200;52.194;9.900;2023-02-18T00:16:26;100181.75;;;11.25;97.47
14232;BME280;7200;52.194;9.900;2023-02-18T00:18:57;100201.63;;;11.34;97.13
14232;BME280;7200;52.194;9.900;2023-02-18T00:21:23;100156.50;;;10.98;98.30
14232;BME280;7200;52.194;9.900;2023-02-18T00:23:48;100174.28;;;11.35;96.88
14232;BME280;7200;52.194;9.900;2023-02-18T00:26:15;100259.56;;;11.78;97.05
14232;BME280;7200;52.194;9.900;2023-02-18T00:28:41;100133.81;;;11.35;96.28
14232;BME280;7200;52.194;9.900;2023-02-18T00:31:13;100207.53;;;11.60;96.22
14232;BME280;7200;52.194;9.900;2023-02-18T00:33:40;100253.28;;;12.01;95.72
14232;BME280;7200;52.194;9.900;2023-02-18T00:36:11;100214.53;;;11.81;95.66
14232;BME280;7200;52.194;9.900;2023-02-18T00:38:37;100200.28;;;12.04;93.61
14232;BME280;7200;52.194;9.900;2023-02-18T00:41:03;100196.19;;;12.16;92.53
14232;BME280;7200;52.194;9.900;2023-02-18T00:43:29;100162.03;;;12.31;91.17
14232;BME280;7200;52.194;9.900;2023-02-18T00:45:54;100226.84;;;12.58;91.06
14232;BME280;7200;52.194;9.900;2023-02-18T00:48:20;100182.97;;;12.16;91.34
14232;BME280;7200;52.194;9.900;2023-02-18T00:50:46;100148.59;;;11.97;91.54
14232;BME280;7200;52.194;9.900;2023-02-18T00:53:11;99927.59;;;11.20;91.34
14232;BME280;7200;52.194;9.900;2023-02-18T00:55:41;100219.28;;;12.32;91.97
14232;BME280;7200;52.194;9.900;2023-02-18T00:58:07;100234.78;;;12.39;91.62
14232;BME280;7200;52.194;9.900;2023-02-18T01:00:32;100156.69;;;12.13;90.82
14232;BME280;7200;52.194;9.900;2023-02-18T01:02:57;100138.53;;;12.05;91.44
14232;BME280;7200;52.194;9.900;2023-02-18T01:05:23;100220.28;;;12.29;92.28
14232;BME280;7200;52.194;9.900;2023-02-18T01:07:48;100143.91;;;12.04;91.67
14232;BME280;7200;52.194;9.900;2023-02-18T01:10:14;100110.06;;;11.73;92.64
14232;BME280;7200;52.194;9.900;2023-02-18T01:12:39;100232.97;;;12.22;92.62
14232;BME280;7200;52.194;9.900;2023-02-18T01:15:06;100199.34;;;12.24;92.01
14232;BME280;7200;52.194;9.900;2023-02-18T01:17:32;100215.72;;;12.14;93.02
14232;BME280;7200;52.194;9.900;2023-02-18T01:19:57;100098.75;;;11.90;91.70
14232;BME280;7200;52.194;9.900;2023-02-18T01:22:24;100162.56;;;11.80;93.34
14232;BME280;7200;52.194;9.900;2023-02-18T01:24:49;100170.34;;;11.64;94.37
14232;BME280;7200;52.194;9.900;2023-02-18T01:27:14;100299.22;;;12.57;93.05
14232;BME280;7200;52.194;9.900;2023-02-18T01:29:40;100285.25;;;12.73;91.79
14232;BME280;7200;52.194;9.900;2023-02-18T01:32:05;100206.56;;;12.40;91.40
14232;BME280;7200;52.194;9.900;2023-02-18T01:34:30;100212.06;;;12.35;92.79
14232;BME280;7200;52.194;9.900;2023-02-18T01:36:55;100276.47;;;12.72;92.43
14232;BME280;7200;52.194;9.900;2023-02-18T01:39:21;100269.50;;;12.89;91.16
14232;BME280;7200;52.194;9.900;2023-02-18T01:41:46;100258.53;;;12.96;90.33
14232;BME280;7200;52.194;9.900;2023-02-18T01:44:18;100275.63;;;13.25;88.99
14232;BME280;7200;52.194;9.900;2023-02-18T01:46:44;100402.69;;;14.17;87.92
14232;BME280;7200;52.194;9.900;2023-02-18T01:49:17;100419.34;;;14.88;85.25
14232;BME280;7200;52.194;9.900;2023-02-18T01:51:49;100291.94;;;14.86;82.57
14232;BME280;7200;52.194;9.900;2023-02-18T01:54:26;100243.50;;;14.49;82.99
14232;BME280;7200;52.194;9.900;2023-02-18T01:59:32;100290.81;;;14.58;83.46
14232;BME280;7200;52.194;9.900;2023-02-18T02:01:59;100261.59;;;14.74;82.64
14232;BME280;7200;52.194;9.900;2023-02-18T02:04:25;100139.66;;;13.92;83.45
14232;BME280;7200;52.194;9.900;2023-02-18T02:06:50;100196.66;;;14.16;84.29
14232;BME280;7200;52.194;9.900;2023-02-18T02:09:17;100169.75;;;13.75;86.47
14232;BME280;7200;52.194;9.900;2023-02-18T02:12:15;100355.94;;;14.82;86.27
14232;BME280;7200;52.194;9.900;2023-02-18T02:18:14;100194.09;;;14.78;85.05
14232;BME280;7200;52.194;9.900;2023-02-18T02:26:39;100322.03;;;15.33;87.78
14232;BME280;7200;52.194;9.900;2023-02-18T02:35:03;100343.06;;;16.84;83.03
14232;BME280;7200;52.194;9.900;2023-02-18T02:37:53;100588.94;;;17.31;83.98
14232;BME280;7200;52.194;9.900;2023-02-18T02:40:37;100403.75;;;16.79;81.59
14232;BME280;7200;52.194;9.900;2023-02-18T02:46:46;100143.69;;;14.93;87.49
14232;BME280;7200;52.194;9.900;2023-02-18T02:52:02;100181.13;;;14.58;91.00
14232;BME280;7200;52.194;9.900;2023-02-18T02:54:30;100335.78;;;15.09;92.61
14232;BME280;7200;52.194;9.900;2023-02-18T02:59:39;100153.28;;;10.48;100.00
14232;BME280;7200;52.194;9.900;2023-02-18T03:07:38;100325.63;;;10.24;100.00
14232;BME280;7200;52.194;9.900;2023-02-18T03:15:59;100321.81;;;10.32;100.00
14232;BME280;7200;52.194;9.900;2023-02-18T03:19:06;100315.34;;;10.16;100.00
14232;BME280;7200;52.194;9.900;2023-02-18T03:21:40;100336.44;;;10.16;100.00
14232;BME280;7200;52.194;9.900;2023-02-18T03:24:29;100360.91;;;10.20;100.00
14232;BME280;7200;52.194;9.900;2023-02-18T03:27:02;100328.84;;;10.07;100.00
14232;BME280;7200;52.194;9.900;2023-02-18T03:29:30;100348.53;;;10.22;100.00
14232;BME280;7200;52.194;9.900;2023-02-18T03:31:59;100363.16;;;10.56;100.00
14232;BME280;7200;52.194;9.900;2023-02-18T03:34:40;100330.34;;;10.39;100.00
14232;BME280;7200;52.194;9.900;2023-02-18T03:37:08;100311.31;;;10.31;100.00
14232;BME280;7200;52.194;9.900;2023-02-18T03:39:35;100327.72;;;10.39;100.00
14232;BME280;7200;52.194;9.900;2023-02-18T03:42:01;100263.06;;;10.04;100.00
14232;BME280;7200;52.194;9.900;2023-02-18T03:44:26;100304.81;;;10.16;100.00
14232;BME280;7200;52.194;9.900;2023-02-18T03:46:52;100291.88;;;10.33;100.00
14232;BME280;7200;52.194;9.900;2023-02-18T03:49:17;100313.28;;;10.49;100.00
14232;BME280;7200;52.194;9.900;2023-02-18T03:51:43;100242.91;;;10.03;100.00
14232;BME280;7200;52.194;9.900;2023-02-18T03:54:09;100281.94;;;10.17;100.00
14232;BME280;7200;52.194;9.900;2023-02-18T03:56:35;100294.78;;;10.26;100.00
14232;BME280;7200;52.194;9.900;2023-02-18T03:59:01;100310.97;;;10.40;100.00
14232;BME280;7200;52.194;9.900;2023-02-18T04:01:26;100293.47;;;10.38;100.00
14232;BME280;7200;52.194;9.900;2023-02-18T04:03:52;100297.59;;;10.45;100.00
14232;BME280;7200;52.194;9.900;2023-02-18T04:06:20;100278.91;;;10.27;100.00
14232;BME280;7200;52.194;9.900;2023-02-18T04:08:45;100272.47;;;10.36;100.00
14232;BME280;7200;52.194;9.900;2023-02-18T04:11:11;100327.06;;;10.80;100.00
14232;BME280;7200;52.194;9.900;2023-02-18T04:13:36;100311.22;;;10.80;100.00
14232;BME280;7200;52.194;9.900;2023-02-18T04:16:01;100304.63;;;10.68;100.00
14232;BME280;7200;52.194;9.900;2023-02-18T04:18:27;100278.75;;;10.56;100.00
14232;BME280;7200;52.194;9.900;2023-02-18T04:20:52;100285.75;;;10.33;100.00
14232;BME280;7200;52.194;9.900;2023-02-18T04:23:17;100370.31;;;10.76;100.00
14232;BME280;7200;52.194;9.900;2023-02-18T04:25:42;100358.44;;;10.64;100.00
14232;BME280;7200;52.194;9.900;2023-02-18T04:28:08;100336.91;;;10.27;100.00
14232;BME280;7200;52.194;9.900;2023-02-18T04:30:35;100363.28;;;10.27;100.00
14232;BME280;7200;52.194;9.900;2023-02-18T04:33:00;100369.53;;;10.25;100.00
14232;BME280;7200;52.194;9.900;2023-02-18T04:35:26;100347.22;;;10.10;100.00
14232;BME280;7200;52.194;9.900;2023-02-18T04:37:51;100408.97;;;10.53;100.00
14232;BME280;7200;52.194;9.900;2023-02-18T04:40:16;100400.38;;;10.48;100.00
14232;BME280;7200;52.194;9.900;2023-02-18T04:42:41;100386.72;;;10.37;100.00
14232;BME280;7200;52.194;9.900;2023-02-18T04:45:07;100384.56;;;10.23;100.00
14232;BME280;7200;52.194;9.900;2023-02-18T04:47:33;100410.53;;;10.33;100.00
14232;BME280;7200;52.194;9.900;2023-02-18T04:49:58;100409.25;;;10.45;100.00
14232;BME280;7200;52.194;9.900;2023-02-18T04:52:23;100368.31;;;10.35;100.00
14232;BME280;7200;52.194;9.900;2023-02-18T04:54:49;100381.78;;;10.26;100.00
14232;BME280;7200;52.194;9.900;2023-02-18T04:57:14;100414.03;;;10.59;100.00
14232;BME280;7200;52.194;9.900;2023-02-18T04:59:39;100390.69;;;10.72;100.00
14232;BME280;7200;52.194;9.900;2023-02-18T05:02:05;100361.66;;;10.48;100.00
14232;BME280;7200;52.194;9.900;2023-02-18T05:04:30;100388.09;;;10.47;100.00
14232;BME280;7200;52.194;9.900;2023-02-18T05:06:56;100391.69;;;10.68;100.00
14232;BME280;7200;52.194;9.900;2023-02-18T05:09:21;100356.06;;;10.34;100.00
14232;BME280;7200;52.194;9.900;2023-02-18T05:11:46;100384.03;;;10.62;100.00
14232;BME280;7200;52.194;9.900;2023-02-18T05:14:12;100391.66;;;10.69;100.00
14232;BME280;7200;52.194;9.900;2023-02-18T05:16:37;100364.53;;;10.42;100.00
14232;BME280;7200;52.194;9.900;2023-02-18T05:19:03;100352.97;;;10.21;100.00
14232;BME280;7200;52.194;9.900;2023-02-18T05:21:28;100401.16;;;10.50;100.00
14232;BME280;7200;52.194;9.900;2023-02-18T05:23:53;100378.22;;;10.52;100.00
14232;BME280;7200;52.194;9.900;2023-02-18T05:26:18;100414.78;;;10.63;100.00
14232;BME280;7200;52.194;9.900;2023-02-18T05:28:44;100382.53;;;10.55;100.00
14232;BME280;7200;52.194;9.900;2023-02-18T05:31:09;100392.63;;;10.67;100.00
14232;BME280;7200;52.194;9.900;2023-02-18T05:33:34;100369.56;;;10.48;100.00
14232;BME280;7200;52.194;9.900;2023-02-18T05:36:00;100391.38;;;10.54;100.00
14232;BME280;7200;52.194;9.900;2023-02-18T05:38:25;100379.88;;;10.31;100.00
14232;BME280;7200;52.194;9.900;2023-02-18T05:40:51;100415.88;;;10.57;100.00
14232;BME280;7200;52.194;9.900;2023-02-18T05:43:16;100381.50;;;10.59;100.00
14232;BME280;7200;52.194;9.900;2023-02-18T05:45:41;100393.97;;;10.55;100.00
14232;BME280;7200;52.194;9.900;2023-02-18T05:48:07;100375.50;;;10.55;100.00
14232;BME280;7200;52.194;9.900;2023-02-18T05:50:32;100384.31;;;10.54;100.00
14232;BME280;7200;52.194;9.900;2023-02-18T05:52:58;100404.03;;;10.67;100.00
14232;BME280;7200;52.194;9.900;2023-02-18T05:55:23;100388.22;;;10.67;100.00
14232;BME280;7200;52.194;9.900;2023-02-18T05:57:49;100399.91;;;10.84;100.00
14232;BME280;7200;52.194;9.900;2023-02-18T06:00:14;100382.63;;;10.75;100.00
14232;BME280;7200;52.194;9.900;2023-02-18T06:02:40;100364.53;;;10.42;100.00
14232;BME280;7200;52.194;9.900;2023-02-18T06:05:06;100374.84;;;10.72;100.00
14232;BME280;7200;52.194;9.900;2023-02-18T06:07:31;100371.34;;;10.71;100.00
14232;BME280;7200;52.194;9.900;2023-02-18T06:09:56;100379.41;;;10.90;100.00
14232;BME280;7200;52.194;9.900;2023-02-18T06:12:22;100366.28;;;11.11;100.00
14232;BME280;7200;52.194;9.900;2023-02-18T06:14:48;100339.09;;;10.87;100.00
14232;BME280;7200;52.194;9.900;2023-02-18T06:17:14;100364.41;;;10.93;100.00
14232;BME280;7200;52.194;9.900;2023-02-18T06:19:40;100329.66;;;10.58;100.00
14232;BME280;7200;52.194;9.900;2023-02-18T06:22:05;100348.13;;;10.58;100.00
14232;BME280;7200;52.194;9.900;2023-02-18T06:24:31;100365.03;;;10.76;100.00
14232;BME280;7200;52.194;9.900;2023-02-18T06:26:57;100372.88;;;10.77;100.00
14232;BME280;7200;52.194;9.900;2023-02-18T06:29:22;100350.41;;;10.67;100.00
14232;BME280;7200;52.194;9.900;2023-02-18T06:31:47;100362.91;;;10.62;100.00
14232;BME280;7200;52.194;9.900;2023-02-18T06:34:13;100349.47;;;10.68;100.00
14232;BME280;7200;52.194;9.900;2023-02-18T06:36:38;100338.88;;;10.69;100.00
14232;BME280;7200;52.194;9.900;2023-02-18T06:39:05;100335.56;;;10.86;100.00
14232;BME280;7200;52.194;9.900;2023-02-18T06:41:30;100347.19;;;10.82;100.00
14232;BME280;7200;52.194;9.900;2023-02-18T06:43:55;100326.31;;;10.76;100.00
14232;BME280;7200;52.194;9.900;2023-02-18T06:46:21;100332.84;;;11.12;100.00
14232;BME280;7200;52.194;9.900;2023-02-18T06:48:46;100330.00;;;11.16;100.00
14232;BME280;7200;52.194;9.900;2023-02-18T06:51:12;100314.16;;;11.16;100.00
14232;BME280;7200;52.194;9.900;2023-02-18T06:53:37;100307.81;;;11.20;100.00
14232;BME280;7200;52.194;9.900;2023-02-18T06:56:02;100301.25;;;11.30;100.00
14232;BME280;7200;52.194;9.900;2023-02-18T06:58:28;100305.69;;;11.71;100.00
14232;BME280;7200;52.194;9.900;2023-02-18T07:00:53;100296.66;;;11.77;100.00
14232;BME280;7200;52.194;9.900;2023-02-18T07:03:19;100295.47;;;12.04;100.00
14232;BME280;7200;52.194;9.900;2023-02-18T07:05:44;100259.72;;;11.96;100.00
14232;BME280;7200;52.194;9.900;2023-02-18T07:08:09;100251.25;;;12.08;100.00
14232;BME280;7200;52.194;9.900;2023-02-18T07:10:35;100231.50;;;11.96;100.00
14232;BME280;7200;52.194;9.900;2023-02-18T07:13:00;100242.03;;;12.17;100.00
14232;BME280;7200;52.194;9.900;2023-02-18T07:15:26;100242.81;;;12.38;100.00
14232;BME280;7200;52.194;9.900;2023-02-18T07:17:52;100221.19;;;12.28;100.00
14232;BME280;7200;52.194;9.900;2023-02-18T07:20:19;100202.97;;;12.22;100.00
14232;BME280;7200;52.194;9.900;2023-02-18T07:22:44;100182.13;;;12.16;100.00
14232;BME280;7200;52.194;9.900;2023-02-18T07:25:10;100162.06;;;11.72;100.00
14232;BME280;7200;52.194;9.900;2023-02-18T07:27:35;100225.88;;;12.04;100.00
14232;BME280;7200;52.194;9.900;2023-02-18T07:30:00;100194.34;;;11.79;100.00
14232;BME280;7200;52.194;9.900;2023-02-18T07:32:25;100218.88;;;11.82;100.00
14232;BME280;7200;52.194;9.900;2023-02-18T07:34:51;100242.94;;;12.16;100.00
14232;BME280;7200;52.194;9.900;2023-02-18T07:37:18;100256.59;;;12.25;100.00
14232;BME280;7200;52.194;9.900;2023-02-18T07:39:43;100221.38;;;12.06;100.00
14232;BME280;7200;52.194;9.900;2023-02-18T07:42:10;100228.94;;;12.14;100.00
14232;BME280;7200;52.194;9.900;2023-02-18T07:44:37;100218.06;;;12.20;100.00
14232;BME280;7200;52.194;9.900;2023-02-18T07:47:04;100214.69;;;11.97;100.00
14232;BME280;7200;52.194;9.900;2023-02-18T07:49:30;100214.72;;;12.16;100.00
14232;BME280;7200;52.194;9.900;2023-02-18T07:51:55;100215.66;;;12.15;100.00
14232;BME280;7200;52.194;9.900;2023-02-18T07:54:20;100226.06;;;11.99;100.00
14232;BME280;7200;52.194;9.900;2023-02-18T07:56:46;100209.66;;;11.72;100.00
14232;BME280;7200;52.194;9.900;2023-02-18T07:59:12;100230.38;;;12.02;100.00
14232;BME280;7200;52.194;9.900;2023-02-18T08:01:38;100223.28;;;12.02;100.00
14232;BME280;7200;52.194;9.900;2023-02-18T08:04:03;100225.94;;;12.02;100.00
14232;BME280;7200;52.194;9.900;2023-02-18T08:06:33;100200.69;;;12.14;100.00
14232;BME280;7200;52.194;9.900;2023-02-18T08:08:58;100214.78;;;12.15;100.00
14232;BME280;7200;52.194;9.900;2023-02-18T08:11:24;100207.38;;;12.04;100.00
14232;BME280;7200;52.194;9.900;2023-02-18T08:13:49;100216.72;;;12.11;100.00
14232;BME280;7200;52.194;9.900;2023-02-18T08:16:17;100232.97;;;12.22;100.00
14232;BME280;7200;52.194;9.900;2023-02-18T08:18:43;100207.56;;;11.99;100.00
14232;BME280;7200;52.194;9.900;2023-02-18T08:21:09;100226.66;;;12.25;100.00
14232;BME280;7200;52.194;9.900;2023-02-18T08:23:34;100193.91;;;12.08;100.00
14232;BME280;7200;52.194;9.900;2023-02-18T08:25:59;100216.00;;;12.26;100.00
14232;BME280;7200;52.194;9.900;2023-02-18T08:28:25;100199.19;;;12.08;100.00
14232;BME280;7200;52.194;9.900;2023-02-18T08:30:52;100213.91;;;11.95;100.00
14232;BME280;7200;52.194;9.900;2023-02-18T08:33:18;100229.50;;;12.20;100.00
14232;BME280;7200;52.194;9.900;2023-02-18T08:35:44;100206.22;;;12.10;100.00
14232;BME280;7200;52.194;9.900;2023-02-18T08:38:10;100219.44;;;12.10;100.00
14232;BME280;7200;52.194;9.900;2023-02-18T08:40:35;100192.47;;;12.20;100.00
14232;BME280;7200;52.194;9.900;2023-02-18T08:43:01;100205.94;;;12.16;100.00
14232;BME280;7200;52.194;9.900;2023-02-18T08:45:26;100203.28;;;12.16;100.00
14232;BME280;7200;52.194;9.900;2023-02-18T08:47:51;100194.47;;;12.34;100.00
14232;BME280;7200;52.194;9.900;2023-02-18T08:50:17;100185.00;;;12.30;100.00
14232;BME280;7200;52.194;9.900;2023-02-18T08:52:44;100192.91;;;12.49;100.00
14232;BME280;7200;52.194;9.900;2023-02-18T08:55:09;100187.19;;;12.76;100.00
14232;BME280;7200;52.194;9.900;2023-02-18T08:57:35;100166.16;;;12.73;100.00
14232;BME280;7200;52.194;9.900;2023-02-18T09:00:00;100142.94;;;12.60;100.00
14232;BME280;7200;52.194;9.900;2023-02-18T09:02:25;100135.38;;;12.53;100.00
14232;BME280;7200;52.194;9.900;2023-02-18T09:04:53;100143.56;;;12.65;100.00
14232;BME280;7200;52.194;9.900;2023-02-18T09:07:18;100142.41;;;12.71;100.00
14232;BME280;7200;52.194;9.900;2023-02-18T09:09:43;100141.53;;;12.71;100.00
14232;BME280;7200;52.194;9.900;2023-02-18T09:12:09;100132.50;;;12.57;100.00
14232;BME280;7200;52.194;9.900;2023-02-18T09:14:34;100117.53;;;12.56;100.00
14232;BME280;7200;52.194;9.900;2023-02-18T09:16:59;100138.44;;;12.80;100.00
14232;BME280;7200;52.194;9.900;2023-02-18T09:19:25;100143.88;;;12.77;100.00
14232;BME280;7200;52.194;9.900;2023-02-18T09:21:50;100127.72;;;12.83;100.00
14232;BME280;7200;52.194;9.900;2023-02-18T09:24:18;100138.28;;;13.00;100.00
14232;BME280;7200;52.194;9.900;2023-02-18T09:26:43;100119.59;;;12.86;100.00
14232;BME280;7200;52.194;9.900;2023-02-18T09:29:08;100107.44;;;12.82;100.00
14232;BME280;7200;52.194;9.900;2023-02-18T09:31:34;100114.97;;;13.07;100.00
14232;BME280;7200;52.194;9.900;2023-02-18T09:34:00;100101.13;;;13.02;100.00
14232;BME280;7200;52.194;9.900;2023-02-18T09:36:26;100095.28;;;12.95;100.00
14232;BME280;7200;52.194;9.900;2023-02-18T09:38:52;100093.34;;;12.99;100.00
14232;BME280;7200;52.194;9.900;2023-02-18T09:41:23;100059.66;;;12.85;100.00
14232;BME280;7200;52.194;9.900;2023-02-18T09:43:54;100086.56;;;12.93;100.00
14232;BME280;7200;52.194;9.900;2023-02-18T09:46:24;100112.31;;;13.24;100.00
14232;BME280;7200;52.194;9.900;2023-02-18T09:48:51;100091.06;;;13.09;100.00
14232;BME280;7200;52.194;9.900;2023-02-18T09:51:17;100095.81;;;13.19;100.00
14232;BME280;7200;52.194;9.900;2023-02-18T09:53:44;100097.06;;;13.12;100.00
14232;BME280;7200;52.194;9.900;2023-02-18T09:56:17;100094.06;;;13.18;100.00
14232;BME280;7200;52.194;9.900;2023-02-18T09:58:45;100070.09;;;13.21;100.00
14232;BME280;7200;52.194;9.900;2023-02-18T10:01:36;100064.34;;;13.13;100.00
14232;BME280;7200;52.194;9.900;2023-02-18T10:04:04;100051.66;;;13.02;100.00
14232;BME280;7200;52.194;9.900;2023-02-18T10:06:34;100065.91;;;13.17;100.00
14232;BME280;7200;52.194;9.900;2023-02-18T10:09:05;100035.09;;;12.99;100.00
14232;BME280;7200;52.194;9.900;2023-02-18T10:11:39;100045.59;;;13.00;100.00
14232;BME280;7200;52.194;9.900;2023-02-18T10:14:10;100041.91;;;13.03;100.00
14232;BME280;7200;52.194;9.900;2023-02-18T10:16:36;100047.41;;;13.00;100.00
14232;BME280;7200;52.194;9.900;2023-02-18T10:19:29;100054.75;;;13.11;100.00
14232;BME280;7200;52.194;9.900;2023-02-18T10:21:56;100051.63;;;13.20;100.00
14232;BME280;7200;52.194;9.900;2023-02-18T10:24:37;100061.28;;;13.38;100.00
14232;BME280;7200;52.194;9.900;2023-02-18T10:27:06;100050.16;;;13.32;100.00
14232;BME280;7200;52.194;9.900;2023-02-18T10:29:31;100031.09;;;13.08;100.00
14232;BME280;7200;52.194;9.900;2023-02-18T10:34:42;100020.28;;;13.28;100.00
14232;BME280;7200;52.194;9.900;2023-02-18T10:37:25;100030.91;;;13.28;100.00
14232;BME280;7200;52.194;9.900;2023-02-18T10:42:35;99988.38;;;13.14;100.00
14232;BME280;7200;52.194;9.900;2023-02-18T10:45:32;99994.88;;;13.08;100.00
14232;BME280;7200;52.194;9.900;2023-02-18T10:51:23;99985.81;;;12.79;100.00
14232;BME280;7200;52.194;9.900;2023-02-18T10:53:51;99997.50;;;12.92;100.00
14232;BME280;7200;52.194;9.900;2023-02-18T10:56:46;100004.19;;;12.82;100.00
14232;BME280;7200;52.194;9.900;2023-02-18T10:59:21;99971.47;;;12.50;100.00
14232;BME280;7200;52.194;9.900;2023-02-18T11:02:14;99991.06;;;12.63;100.00
14232;BME280;7200;52.194;9.900;2023-02-18T11:04:43;100012.25;;;12.63;100.00
14232;BME280;7200;52.194;9.900;2023-02-18T11:09:41;99986.56;;;12.65;100.00
14232;BME280;7200;52.194;9.900;2023-02-18T11:13:01;99981.25;;;12.65;100.00
14232;BME280;7200;52.194;9.900;2023-02-18T11:17:37;99973.16;;;12.68;100.00
14232;BME280;7200;52.194;9.900;2023-02-18T11:20:31;100014.16;;;12.94;100.00
14232;BME280;7200;52.194;9.900;2023-02-18T11:25:34;99956.78;;;12.44;100.00
14232;BME280;7200;52.194;9.900;2023-02-18T11:28:03;99993.16;;;12.56;100.00
14232;BME280;7200;52.194;9.900;2023-02-18T11:30:38;99998.94;;;12.64;100.00
14232;BME280;7200;52.194;9.900;2023-02-18T11:33:48;100005.75;;;17.81;100.00
14232;BME280;7200;52.194;9.900;2023-02-18T11:35:56;99934.44;;;17.59;100.00
14232;BME280;7200;52.194;9.900;2023-02-18T11:38:25;99961.00;;;18.33;100.00
14232;BME280;7200;52.194;9.900;2023-02-18T11:40:54;99760.63;;;16.32;100.00
14232;BME280;7200;52.194;9.900;2023-02-18T11:43:20;99777.41;;;15.55;100.00
14232;BME280;7200;52.194;9.900;2023-02-18T11:45:45;99811.56;;;15.22;100.00
14232;BME280;7200;52.194;9.900;2023-02-18T11:48:22;99844.50;;;15.73;100.00
14232;BME280;7200;52.194;9.900;2023-02-18T11:50:52;99867.63;;;15.99;100.00
14232;BME280;7200;52.194;9.900;2023-02-18T11:53:32;99943.09;;;15.98;100.00
14232;BME280;7200;52.194;9.900;2023-02-18T11:56:00;99902.63;;;15.92;100.00
14232;BME280;7200;52.194;9.900;2023-02-18T11:58:31;99995.41;;;17.03;100.00
14232;BME280;7200;52.194;9.900;2023-02-18T12:00:59;99893.50;;;16.61;100.00
14232;BME280;7200;52.194;9.900;2023-02-18T12:03:47;99884.59;;;16.49;100.00
14232;BME280;7200;52.194;9.900;2023-02-18T12:06:15;99865.53;;;16.17;100.00
14232;BME280;7200;52.194;9.900;2023-02-18T12:09:05;99856.69;;;16.42;100.00
14232;BME280;7200;52.194;9.900;2023-02-18T12:11:39;99912.66;;;17.04;100.00
14232;BME280;7200;52.194;9.900;2023-02-18T12:14:16;99852.38;;;16.78;100.00
14232;BME280;7200;52.194;9.900;2023-02-18T12:25:21;99849.03;;;16.37;100.00
14232;BME280;7200;52.194;9.900;2023-02-18T12:28:10;99964.63;;;17.73;100.00
14232;BME280;7200;52.194;9.900;2023-02-18T12:36:16;99915.06;;;17.33;100.00
14232;BME280;7200;52.194;9.900;2023-02-18T12:44:37;99821.66;;;16.35;100.00
14232;BME280;7200;52.194;9.900;2023-02-18T12:47:39;99905.03;;;16.87;100.00
14232;BME280;7200;52.194;9.900;2023-02-18T12:50:20;99822.50;;;16.35;100.00
14232;BME280;7200;52.194;9.900;2023-02-18T13:04:02;99957.19;;;10.70;100.00
14232;BME280;7200;52.194;9.900;2023-02-18T13:12:29;99994.56;;;10.59;100.00
14232;BME280;7200;52.194;9.900;2023-02-18T13:15:38;100017.97;;;10.67;100.00
14232;BME280;7200;52.194;9.900;2023-02-18T13:18:11;100014.63;;;10.63;100.00
14232;BME280;7200;52.194;9.900;2023-02-18T13:20:41;100032.81;;;10.69;100.00
14232;BME280;7200;52.194;9.900;2023-02-18T13:23:20;100038.63;;;10.78;100.00
14232;BME280;7200;52.194;9.900;2023-02-18T13:25:50;100048.56;;;10.71;100.00
14232;BME280;7200;52.194;9.900;2023-02-18T13:28:39;100039.25;;;10.62;100.00
14232;BME280;7200;52.194;9.900;2023-02-18T13:39:08;100052.63;;;10.80;100.00
14232;BME280;7200;52.194;9.900;2023-02-18T13:41:40;100084.00;;;10.86;100.00
14232;BME280;7200;52.194;9.900;2023-02-18T13:44:07;100069.03;;;10.86;100.00
14232;BME280;7200;52.194;9.900;2023-02-18T13:46:47;100071.81;;;10.83;100.00
14232;BME280;7200;52.194;9.900;2023-02-18T13:49:17;100090.19;;;10.85;100.00
14232;BME280;7200;52.194;9.900;2023-02-18T13:51:47;100099.44;;;10.75;100.00
14232;BME280;7200;52.194;9.900;2023-02-18T13:56:43;100110.50;;;10.83;100.00
14232;BME280;7200;52.194;9.900;2023-02-18T13:59:37;100107.09;;;11.01;100.00
14232;BME280;7200;52.194;9.900;2023-02-18T14:02:33;100095.69;;;11.01;100.00
14232;BME280;7200;52.194;9.900;2023-02-18T14:12:59;100078.34;;;11.35;100.00
14232;BME280;7200;52.194;9.900;2023-02-18T14:28:42;100075.72;;;11.14;100.00
14232;BME280;7200;52.194;9.900;2023-02-18T14:33:40;100125.84;;;11.16;100.00
14232;BME280;7200;52.194;9.900;2023-02-18T14:44:11;100176.09;;;10.92;100.00
14232;BME280;7200;52.194;9.900;2023-02-18T14:47:14;100185.94;;;10.88;100.00
14232;BME280;7200;52.194;9.900;2023-02-18T14:49:47;100190.31;;;10.89;100.00
14232;BME280;7200;52.194;9.900;2023-02-18T14:55:03;100208.91;;;10.86;100.00
14232;BME280;7200;52.194;9.900;2023-02-18T14:58:02;100214.06;;;10.89;100.00
14232;BME280;7200;52.194;9.900;2023-02-18T15:00:34;100215.22;;;10.82;100.00
14232;BME280;7200;52.194;9.900;2023-02-18T15:03:00;100210.16;;;10.78;100.00
14232;BME280;7200;52.194;9.900;2023-02-18T15:05:29;100222.03;;;10.88;100.00
14232;BME280;7200;52.194;9.900;2023-02-18T15:07:58;100210.06;;;10.79;100.00
14232;BME280;7200;52.194;9.900;2023-02-18T15:10:40;100209.63;;;10.90;100.00
14232;BME280;7200;52.194;9.900;2023-02-18T15:15:42;100212.34;;;11.09;100.00
14232;BME280;7200;52.194;9.900;2023-02-18T15:18:33;100216.66;;;11.12;100.00
14232;BME280;7200;52.194;9.900;2023-02-18T15:21:00;100209.38;;;11.17;100.00
14232;BME280;7200;52.194;9.900;2023-02-18T15:23:26;100214.88;;;11.12;100.00